X  Schließen Metar Luftfahrt Wetterdaten     KAST Astoria Regional
Temperatur
52°F Temperatur
45°F Taupunkt
77% Feuchtigkeit



Wind
14 MPH
23 KM/H
6 M/S
12 KTS



200°
SSW
Aktuelle Wetterlage

Teilweise bewölkt Teilweise bewölkt
Luftdruck 1011.82 (hPa) - 29.88 (inHg)
Sichtweite 10 (Meile) - 16.1 (km)
Flughafen
Flughafen Code KAST

Position : Astoria Regional
Entfernung: 20 (mi)

Metar:
KAST 292308Z AUTO 20012G25KT 10SM FEW018 BKN026 OVC042 11/07 A2988 RMK AO2 T01060067

Zeit: 03-29-2020 16:08 PDT